createdAt,value
2019-03-11T00:01:42.915Z,69.32
2019-03-11T00:05:46.439Z,69.40
2019-03-11T00:09:50.057Z,69.34
2019-03-11T00:13:53.766Z,69.27
2019-03-11T00:17:57.310Z,69.45
2019-03-11T00:22:01.006Z,69.50
2019-03-11T00:26:04.708Z,69.37
2019-03-11T00:30:10.773Z,69.58
2019-03-11T00:34:14.311Z,69.27
2019-03-11T00:38:18.003Z,69.32
2019-03-11T00:42:21.546Z,69.58
2019-03-11T00:46:25.261Z,69.39
2019-03-11T00:50:28.849Z,69.23
2019-03-11T00:54:32.368Z,69.14
2019-03-11T00:58:35.971Z,69.55
2019-03-11T01:02:39.586Z,69.30
2019-03-11T01:06:43.307Z,69.50
2019-03-11T01:10:46.911Z,69.22
2019-03-11T01:14:50.471Z,69.81
2019-03-11T01:18:54.241Z,69.67
2019-03-11T01:22:57.854Z,69.79
2019-03-11T01:27:01.469Z,69.75
2019-03-11T01:31:05.295Z,69.73
2019-03-11T01:35:10.026Z,70.08
2019-03-11T01:39:13.825Z,69.88
2019-03-11T01:43:17.541Z,69.74
2019-03-11T01:47:21.277Z,70.06
2019-03-11T01:51:25.101Z,70.19
2019-03-11T01:55:28.967Z,70.23
2019-03-11T01:59:32.534Z,70.41
2019-03-11T02:03:36.246Z,70.29
2019-03-11T02:07:39.923Z,70.31
2019-03-11T02:11:43.578Z,70.43
2019-03-11T02:15:47.297Z,70.19
2019-03-11T02:19:51.005Z,70.13
2019-03-11T02:23:54.727Z,69.94
2019-03-11T02:27:58.346Z,70.25
2019-03-11T02:32:02.069Z,70.12
2019-03-11T02:36:05.780Z,70.06
2019-03-11T02:40:14.783Z,69.73
2019-03-11T02:44:18.450Z,69.66
2019-03-11T02:48:22.571Z,69.93
2019-03-11T02:52:26.379Z,69.71
2019-03-11T02:56:29.890Z,69.83
2019-03-11T03:00:33.494Z,69.93
2019-03-11T03:04:41.727Z,69.77
2019-03-11T03:08:45.257Z,69.96
2019-03-11T03:12:48.964Z,70.27
2019-03-11T03:16:52.665Z,70.08
2019-03-11T03:20:56.272Z,69.41
2019-03-11T03:25:00.459Z,69.37
2019-03-11T03:29:04.218Z,69.55
2019-03-11T03:33:09.893Z,69.48
2019-03-11T03:37:13.715Z,68.93
2019-03-11T03:41:17.229Z,68.92
2019-03-11T03:45:29.018Z,68.74
2019-03-11T03:49:31.974Z,68.66
2019-03-11T03:53:35.939Z,68.41
2019-03-11T03:57:39.656Z,68.33
2019-03-11T04:01:43.331Z,68.19
2019-03-11T04:05:46.876Z,68.27
2019-03-11T04:09:50.490Z,68.32
2019-03-11T04:13:54.104Z,68.30
2019-03-11T04:17:57.720Z,68.30
2019-03-11T04:22:01.437Z,68.33
2019-03-11T04:26:05.253Z,68.13
2019-03-11T04:30:15.110Z,68.28
2019-03-11T04:34:18.835Z,68.00
2019-03-11T04:38:22.442Z,67.77
2019-03-11T04:42:27.826Z,68.08
2019-03-11T04:46:31.874Z,67.83
2019-03-11T04:50:35.451Z,67.58
2019-03-11T04:54:39.048Z,67.71
2019-03-11T04:58:42.865Z,67.39
2019-03-11T05:02:46.458Z,67.46
2019-03-11T05:06:50.195Z,67.65
2019-03-11T05:10:53.808Z,67.55
2019-03-11T05:14:57.422Z,67.77
2019-03-11T05:19:01.346Z,67.94
2019-03-11T05:23:04.960Z,68.14
2019-03-11T05:27:08.508Z,67.71
2019-03-11T05:31:12.190Z,67.55
2019-03-11T05:35:15.915Z,67.45
2019-03-11T05:39:19.515Z,67.48
2019-03-11T05:43:23.251Z,67.71
2019-03-11T05:47:26.842Z,67.70
2019-03-11T05:51:31.936Z,67.58
2019-03-11T05:55:35.816Z,67.63
2019-03-11T05:59:39.429Z,67.57
2019-03-11T06:03:43.039Z,67.29
2019-03-11T06:07:46.754Z,67.39
2019-03-11T06:11:50.367Z,67.37
2019-03-11T06:15:53.986Z,67.02
2019-03-11T06:20:02.210Z,67.13
2019-03-11T06:24:06.081Z,66.99
2019-03-11T06:28:09.737Z,66.82
2019-03-11T06:32:13.352Z,67.57
2019-03-11T06:36:16.967Z,67.48
2019-03-11T06:40:20.682Z,67.15
2019-03-11T06:44:24.295Z,66.77
2019-03-11T06:48:27.909Z,67.05
2019-03-11T06:52:31.523Z,66.78
2019-03-11T06:56:35.039Z,66.47
2019-03-11T07:00:38.650Z,66.83
2019-03-11T07:04:42.261Z,66.77
2019-03-11T07:08:45.979Z,66.89
2019-03-11T07:12:49.595Z,66.07
2019-03-11T07:16:53.616Z,66.06
2019-03-11T07:20:57.156Z,66.02
2019-03-11T07:25:01.048Z,65.93
2019-03-11T07:29:04.753Z,65.84
2019-03-11T07:33:08.374Z,65.38
2019-03-11T07:37:12.072Z,65.73
2019-03-11T07:41:15.821Z,65.82
2019-03-11T07:45:19.525Z,65.42
2019-03-11T07:49:26.210Z,65.60
2019-03-11T07:53:29.836Z,65.36
2019-03-11T07:57:33.445Z,64.46
2019-03-11T08:01:37.154Z,65.27
2019-03-11T08:05:40.868Z,64.80
2019-03-11T08:09:44.482Z,65.04
2019-03-11T08:13:48.096Z,64.48
2019-03-11T08:17:51.808Z,63.82
2019-03-11T08:21:55.636Z,63.64
2019-03-11T08:25:59.249Z,63.17
2019-03-11T08:30:02.857Z,62.81
2019-03-11T08:34:06.470Z,63.53
2019-03-11T08:38:10.084Z,63.61
2019-03-11T08:42:13.700Z,64.08
2019-03-11T08:46:17.312Z,64.17
2019-03-11T08:50:22.467Z,63.97
2019-03-11T08:54:26.995Z,63.69
2019-03-11T08:58:30.615Z,63.76
2019-03-11T09:02:34.238Z,63.77
2019-03-11T09:06:37.839Z,63.84
2019-03-11T09:10:41.461Z,63.34
2019-03-11T09:14:45.067Z,63.36
2019-03-11T09:18:49.625Z,63.51
2019-03-11T09:22:53.323Z,63.52
2019-03-11T09:26:57.036Z,63.37
2019-03-11T09:31:00.661Z,63.03
2019-03-11T09:35:05.222Z,63.14
2019-03-11T09:39:11.139Z,62.59
2019-03-11T09:43:14.771Z,62.56
2019-03-11T09:47:18.478Z,62.42
2019-03-11T09:51:22.124Z,61.79
2019-03-11T09:55:31.866Z,62.06
2019-03-11T09:59:35.467Z,61.63
2019-03-11T10:03:39.081Z,61.58
2019-03-11T10:07:42.707Z,60.45
2019-03-11T10:11:46.408Z,60.39
2019-03-11T10:15:50.023Z,58.86
2019-03-11T10:19:53.635Z,58.89
2019-03-11T10:24:00.019Z,59.86
2019-03-11T10:28:03.628Z,59.74
2019-03-11T10:32:07.341Z,59.97
2019-03-11T10:36:11.057Z,59.00
2019-03-11T10:40:22.146Z,60.10
2019-03-11T10:44:25.760Z,60.96
2019-03-11T10:48:37.031Z,60.97
2019-03-11T10:52:34.662Z,59.38
2019-03-11T10:56:38.242Z,58.45
2019-03-11T11:00:42.168Z,57.52
2019-03-11T11:04:47.928Z,56.98
2019-03-11T11:08:51.133Z,57.75
2019-03-11T11:12:54.861Z,59.35
2019-03-11T11:16:58.369Z,58.55
2019-03-11T11:21:01.969Z,58.81
2019-03-11T11:25:07.736Z,58.78
2019-03-11T11:29:11.371Z,58.35
2019-03-11T11:33:15.068Z,59.05
2019-03-11T11:37:18.735Z,59.54
2019-03-11T11:41:22.394Z,60.25
2019-03-11T11:45:28.063Z,60.03
2019-03-11T11:49:31.725Z,58.77
2019-03-11T11:53:35.392Z,58.42
2019-03-11T11:57:39.003Z,58.18
2019-03-11T12:01:42.613Z,56.08
2019-03-11T12:05:46.327Z,55.63
2019-03-11T12:09:50.189Z,56.21
2019-03-11T12:13:53.862Z,54.72
2019-03-11T12:17:57.457Z,53.89
2019-03-11T12:22:00.992Z,55.51
2019-03-11T12:26:04.818Z,56.66
2019-03-11T12:30:26.174Z,57.88
2019-03-11T12:34:29.759Z,58.09
2019-03-11T12:38:33.368Z,58.25
2019-03-11T12:42:36.913Z,58.03
2019-03-11T12:46:40.444Z,58.42
2019-03-11T12:50:44.205Z,57.05
2019-03-11T12:54:48.136Z,58.43
2019-03-11T12:58:51.756Z,58.74
2019-03-11T13:02:55.695Z,58.18
2019-03-11T13:06:59.278Z,57.03
2019-03-11T13:11:02.915Z,57.40
2019-03-11T13:15:08.753Z,56.23
2019-03-11T13:19:13.458Z,56.59
2019-03-11T13:23:17.321Z,56.61
2019-03-11T13:27:20.926Z,57.30
2019-03-11T13:31:25.576Z,58.83
2019-03-11T13:35:29.125Z,58.47
2019-03-11T13:39:32.651Z,57.82
2019-03-11T13:43:36.634Z,57.00
2019-03-11T13:47:40.338Z,57.53
2019-03-11T13:51:43.987Z,56.57
2019-03-11T13:55:47.558Z,57.67
2019-03-11T13:59:51.170Z,58.94
2019-03-11T14:03:54.781Z,59.48
2019-03-11T14:07:58.502Z,60.47
2019-03-11T14:12:02.121Z,61.70
2019-03-11T14:16:05.718Z,62.09
2019-03-11T14:20:11.583Z,62.87
2019-03-11T14:24:16.227Z,63.14
2019-03-11T14:28:19.867Z,64.21
2019-03-11T14:32:23.405Z,64.62
2019-03-11T14:36:26.969Z,65.10
2019-03-11T14:40:30.785Z,64.81
2019-03-11T14:44:34.422Z,65.02
2019-03-11T14:48:38.085Z,64.06
2019-03-11T14:52:41.848Z,63.24
2019-03-11T14:56:45.444Z,63.16
2019-03-11T15:00:49.264Z,63.15
2019-03-11T15:04:52.817Z,63.38
2019-03-11T15:08:59.668Z,62.77
2019-03-11T15:13:04.540Z,63.77
2019-03-11T15:17:08.121Z,64.64
2019-03-11T15:21:14.507Z,63.86
2019-03-11T15:25:19.135Z,63.91
2019-03-11T15:29:22.769Z,64.38
2019-03-11T15:33:26.369Z,64.39
2019-03-11T15:37:30.085Z,65.07
2019-03-11T15:41:33.696Z,64.84
2019-03-11T15:45:38.913Z,64.95
2019-03-11T15:49:42.777Z,65.14
2019-03-11T15:53:46.389Z,65.55
2019-03-11T15:57:50.106Z,65.80
2019-03-11T16:01:53.714Z,65.97
2019-03-11T16:05:57.431Z,66.06
2019-03-11T16:10:01.142Z,66.43
2019-03-11T16:14:04.801Z,66.62
2019-03-11T16:18:08.478Z,65.92
2019-03-11T16:22:22.465Z,65.61
2019-03-11T16:26:17.460Z,65.90
2019-03-11T16:30:25.126Z,65.86
2019-03-11T16:34:30.204Z,65.82
2019-03-11T16:38:33.809Z,66.69
2019-03-11T16:42:37.545Z,67.42
2019-03-11T16:46:41.351Z,67.31
2019-03-11T16:50:45.062Z,67.62
2019-03-11T16:54:48.768Z,67.39
2019-03-11T16:58:52.392Z,67.73
2019-03-11T17:02:56.133Z,67.97
2019-03-11T17:06:59.725Z,68.57
2019-03-11T17:11:03.441Z,68.85
2019-03-11T17:15:08.588Z,69.00
2019-03-11T17:19:12.200Z,68.93
2019-03-11T17:23:19.092Z,67.31
2019-03-11T17:27:22.703Z,67.96
2019-03-11T17:31:26.322Z,67.78
2019-03-11T17:35:33.124Z,67.53
2019-03-11T17:39:36.824Z,66.79
2019-03-11T17:43:40.541Z,67.68
2019-03-11T17:47:44.567Z,68.29
2019-03-11T17:51:48.232Z,68.42
2019-03-11T17:55:51.910Z,68.80
2019-03-11T17:59:55.515Z,68.81
2019-03-11T18:03:59.219Z,68.95
2019-03-11T18:08:03.046Z,69.03
2019-03-11T18:12:06.655Z,69.22
2019-03-11T18:16:10.265Z,69.38
2019-03-11T18:20:16.044Z,69.56
2019-03-11T18:24:19.993Z,69.78
2019-03-11T18:28:24.162Z,69.99
2019-03-11T18:32:27.800Z,69.72
2019-03-11T18:36:31.593Z,69.22
2019-03-11T18:40:35.227Z,69.20
2019-03-11T18:44:38.948Z,68.82
2019-03-11T18:48:42.625Z,69.29
2019-03-11T18:52:46.478Z,69.51
2019-03-11T18:56:50.114Z,69.62
2019-03-11T19:00:54.026Z,69.99
2019-03-11T19:04:57.725Z,69.92
2019-03-11T19:09:01.384Z,70.13
2019-03-11T19:13:05.496Z,70.25
2019-03-11T19:17:09.492Z,70.58
2019-03-11T19:21:13.235Z,70.75
2019-03-11T19:25:17.433Z,70.77
2019-03-11T19:29:21.081Z,70.87
2019-03-11T19:33:24.776Z,70.85
2019-03-11T19:37:28.506Z,70.97
2019-03-11T19:41:32.151Z,71.10
2019-03-11T19:45:35.832Z,70.97
2019-03-11T19:49:39.708Z,71.09
2019-03-11T19:53:43.553Z,71.13
2019-03-11T19:57:47.359Z,71.13
2019-03-11T20:01:50.993Z,71.14
2019-03-11T20:05:54.807Z,71.17
2019-03-11T20:09:58.437Z,71.29
2019-03-11T20:14:02.119Z,71.25
2019-03-11T20:18:05.850Z,71.15
2019-03-11T20:22:09.653Z,71.25
2019-03-11T20:26:14.621Z,71.23
2019-03-11T20:30:23.234Z,71.28
2019-03-11T20:34:27.215Z,71.38
2019-03-11T20:38:31.342Z,71.43
2019-03-11T20:42:35.394Z,71.44
2019-03-11T20:46:39.290Z,71.47
2019-03-11T20:50:43.178Z,71.57
2019-03-11T20:54:47.127Z,71.41
2019-03-11T20:58:52.707Z,71.66
2019-03-11T21:02:59.822Z,71.63
2019-03-11T21:07:02.464Z,71.71
2019-03-11T21:11:06.302Z,71.61
2019-03-11T21:15:12.851Z,71.96
2019-03-11T21:19:16.689Z,71.97
2019-03-11T21:23:20.404Z,72.09
2019-03-11T21:27:25.552Z,72.02
2019-03-11T21:31:29.171Z,72.03
2019-03-11T21:35:33.082Z,72.00
2019-03-11T21:39:37.086Z,72.00
2019-03-11T21:43:40.797Z,72.17
2019-03-11T21:47:45.114Z,72.38
2019-03-11T21:51:48.762Z,72.36
2019-03-11T21:55:52.529Z,72.35
2019-03-11T21:59:56.539Z,72.38
2019-03-11T22:04:01.526Z,72.24
2019-03-11T22:08:05.246Z,72.18
2019-03-11T22:12:10.596Z,72.00
2019-03-11T22:16:14.834Z,71.89
2019-03-11T22:20:19.171Z,71.78
2019-03-11T22:24:23.695Z,71.75
2019-03-11T22:28:27.290Z,71.79
2019-03-11T22:32:31.036Z,71.90
2019-03-11T22:36:34.621Z,71.83
2019-03-11T22:40:38.694Z,71.77
2019-03-11T22:44:42.409Z,71.90
2019-03-11T22:48:46.575Z,71.96
2019-03-11T22:52:50.722Z,72.04
2019-03-11T22:56:54.648Z,72.21
2019-03-11T23:01:00.953Z,72.16
2019-03-11T23:05:05.957Z,72.43
2019-03-11T23:09:10.688Z,72.59
2019-03-11T23:13:14.685Z,72.63
2019-03-11T23:17:18.334Z,72.61
2019-03-11T23:21:23.394Z,72.59
2019-03-11T23:25:27.002Z,72.55
2019-03-11T23:29:30.789Z,72.48
2019-03-11T23:33:34.649Z,72.50
2019-03-11T23:37:38.243Z,72.50
2019-03-11T23:41:42.062Z,72.45
2019-03-11T23:45:45.909Z,72.53
2019-03-11T23:49:50.198Z,72.55
2019-03-11T23:53:53.720Z,72.52
2019-03-11T23:57:57.340Z,72.36
